createdAt,value
2022-12-24T00:00:37.528Z,99261.19
2022-12-24T00:03:09.744Z,99259.25
2022-12-24T00:05:42.279Z,99268.72
2022-12-24T00:08:14.341Z,99273.25
2022-12-24T00:10:50.753Z,99276.22
2022-12-24T00:13:22.764Z,99260.78
2022-12-24T00:15:55.169Z,99264.63
2022-12-24T00:18:27.911Z,99271.41
2022-12-24T00:20:59.922Z,99266.56
2022-12-24T00:23:32.004Z,99254.91
2022-12-24T00:26:04.024Z,99249.88
2022-12-24T00:28:36.001Z,99256.94
2022-12-24T00:31:13.164Z,99253.81
2022-12-24T00:33:49.215Z,99264.09
2022-12-24T00:36:21.984Z,99271.31
2022-12-24T00:38:54.014Z,99270.16
2022-12-24T00:41:26.623Z,99259.44
2022-12-24T00:44:06.473Z,99276.22
2022-12-24T00:46:40.978Z,99270.16
2022-12-24T00:49:13.811Z,99246.06
2022-12-24T00:51:45.862Z,99256.63
2022-12-24T00:54:17.920Z,99238.84
2022-12-24T00:56:49.896Z,99206.44
2022-12-24T00:59:21.884Z,99227.06
2022-12-24T01:01:54.080Z,99236.25
2022-12-24T01:04:44.653Z,99225.88
2022-12-24T01:07:16.683Z,99222.78
2022-12-24T01:09:48.647Z,99226.81
2022-12-24T01:12:20.668Z,99233.47
2022-12-24T01:14:52.537Z,99239.66
2022-12-24T01:17:25.296Z,99238.41
2022-12-24T01:19:57.616Z,99232.81
2022-12-24T01:22:29.730Z,99250.84
2022-12-24T01:25:01.750Z,99228.47
2022-12-24T01:27:33.726Z,99239.41
2022-12-24T01:30:07.737Z,99221.25
2022-12-24T01:32:39.751Z,99260.13
2022-12-24T01:35:12.448Z,99203.56
2022-12-24T01:37:44.422Z,99227.66
2022-12-24T01:40:36.666Z,99244.16
2022-12-24T01:43:23.950Z,99264.34
2022-12-24T01:45:59.117Z,99258.88
2022-12-24T01:48:58.308Z,99254.97
2022-12-24T01:51:33.257Z,99254.44
2022-12-24T01:54:10.238Z,99230.97
2022-12-24T01:56:49.530Z,99260.47
2022-12-24T01:59:22.789Z,99247.47
2022-12-24T02:01:55.030Z,99250.03
2022-12-24T02:04:36.479Z,99271.97
2022-12-24T02:07:08.455Z,99244.16
2022-12-24T02:09:41.169Z,99260.03
2022-12-24T02:12:13.358Z,99249.13
2022-12-24T02:14:45.549Z,99250.31
2022-12-24T02:17:17.457Z,99268.75
2022-12-24T02:20:11.229Z,99261.81
2022-12-24T02:23:14.163Z,99261.06
2022-12-24T02:26:08.435Z,99256.94
2022-12-24T02:29:01.993Z,99257.47
2022-12-24T02:31:38.560Z,99251.31
2022-12-24T02:34:25.755Z,99251.84
2022-12-24T02:37:16.700Z,99253.81
2022-12-24T02:40:27.154Z,99263.38
2022-12-24T02:43:05.168Z,99261.00
2022-12-24T02:45:38.995Z,99252.22
2022-12-24T02:48:14.432Z,99207.03
2022-12-24T02:51:03.854Z,99256.84
2022-12-24T02:53:36.780Z,99254.84
2022-12-24T02:56:29.099Z,99246.09
2022-12-24T02:59:33.535Z,99236.50
2022-12-24T03:02:15.008Z,99271.53
2022-12-24T03:05:05.587Z,99278.34
2022-12-24T03:08:02.751Z,99279.78
2022-12-24T03:10:56.898Z,99277.59
2022-12-24T03:13:29.593Z,99275.03
2022-12-24T03:16:06.355Z,99276.69
2022-12-24T03:18:41.825Z,99268.97
2022-12-24T03:21:25.244Z,99268.19
2022-12-24T03:23:57.246Z,99240.03
2022-12-24T03:26:31.834Z,99273.16
2022-12-24T03:29:08.627Z,99238.22
2022-12-24T03:31:45.054Z,99277.13
2022-12-24T03:34:17.574Z,99271.22
2022-12-24T03:36:50.413Z,99214.31
2022-12-24T03:39:23.131Z,99270.09
2022-12-24T03:41:55.130Z,99171.69
2022-12-24T03:44:27.093Z,99207.38
2022-12-24T03:46:59.174Z,99276.03
2022-12-24T03:49:31.146Z,99258.16
2022-12-24T03:52:03.771Z,99255.88
2022-12-24T03:54:35.735Z,99259.53
2022-12-24T03:57:07.684Z,99251.69
2022-12-24T03:59:39.752Z,99274.97
2022-12-24T04:02:12.071Z,99242.75
2022-12-24T04:04:44.237Z,99253.31
2022-12-24T04:07:16.214Z,99263.06
2022-12-24T04:09:48.151Z,99265.69
2022-12-24T04:12:20.266Z,99258.19
2022-12-24T04:14:52.308Z,99260.56
2022-12-24T04:17:24.355Z,99257.44
2022-12-24T04:19:56.605Z,99255.16
2022-12-24T04:22:28.588Z,99219.38
2022-12-24T04:25:00.742Z,99224.91
2022-12-24T04:27:32.940Z,99259.53
2022-12-24T04:30:05.510Z,99203.06
2022-12-24T04:32:37.502Z,99195.56
2022-12-24T04:35:10.203Z,99269.56
2022-12-24T04:37:42.206Z,99235.44
2022-12-24T04:40:14.381Z,99257.91
2022-12-24T04:42:46.310Z,99200.88
2022-12-24T04:45:19.934Z,99216.56
2022-12-24T04:47:52.536Z,99269.28
2022-12-24T04:50:24.913Z,99238.38
2022-12-24T04:52:56.942Z,99251.94
2022-12-24T04:55:28.909Z,99276.16
2022-12-24T04:58:00.912Z,99259.16
2022-12-24T05:00:32.836Z,99263.41
2022-12-24T05:03:04.801Z,99246.00
2022-12-24T05:05:36.820Z,99280.00
2022-12-24T05:08:08.812Z,99252.78
2022-12-24T05:10:40.795Z,99277.16
2022-12-24T05:13:12.772Z,99285.78
2022-12-24T05:15:45.199Z,99273.31
2022-12-24T05:18:17.431Z,99287.50
2022-12-24T05:20:50.221Z,99253.38
2022-12-24T05:23:43.947Z,99253.00
2022-12-24T05:26:28.191Z,99270.00
2022-12-24T05:29:01.799Z,99275.44
2022-12-24T05:31:34.499Z,99266.25
2022-12-24T05:34:07.379Z,99262.50
2022-12-24T05:36:39.611Z,99271.31
2022-12-24T05:39:18.836Z,99283.31
2022-12-24T05:41:50.929Z,99281.22
2022-12-24T05:44:22.861Z,99276.91
2022-12-24T05:46:54.851Z,99243.06
2022-12-24T05:49:26.851Z,99241.50
2022-12-24T05:51:58.789Z,99264.44
2022-12-24T05:54:30.840Z,99296.81
2022-12-24T05:57:02.834Z,99268.28
2022-12-24T05:59:35.065Z,99269.13
2022-12-24T06:02:07.098Z,99287.47
2022-12-24T06:04:39.360Z,99237.28
2022-12-24T06:07:11.359Z,99283.25
2022-12-24T06:09:43.501Z,99291.50
2022-12-24T06:12:15.473Z,99299.31
2022-12-24T06:14:47.459Z,99261.41
2022-12-24T06:17:19.313Z,99281.78
2022-12-24T06:19:51.719Z,99290.88
2022-12-24T06:22:23.679Z,99272.69
2022-12-24T06:24:55.841Z,99305.56
2022-12-24T06:27:27.789Z,99312.72
2022-12-24T06:29:59.789Z,99269.47
2022-12-24T06:32:31.830Z,99290.63
2022-12-24T06:35:04.030Z,99299.41
2022-12-24T06:37:35.984Z,99286.75
2022-12-24T06:40:08.707Z,99281.25
2022-12-24T06:42:40.745Z,99304.19
2022-12-24T06:45:12.704Z,99312.81
2022-12-24T06:47:44.777Z,99306.84
2022-12-24T06:50:16.862Z,99312.16
2022-12-24T06:52:48.806Z,99288.09
2022-12-24T06:55:20.814Z,99301.03
2022-12-24T06:57:52.788Z,99309.22
2022-12-24T07:00:25.228Z,99305.19
2022-12-24T07:02:57.338Z,99305.09
2022-12-24T07:05:30.063Z,99318.22
2022-12-24T07:08:02.043Z,99328.59
2022-12-24T07:10:34.432Z,99325.66
2022-12-24T07:13:06.571Z,99296.66
2022-12-24T07:15:38.553Z,99330.25
2022-12-24T07:18:10.551Z,99348.13
2022-12-24T07:20:43.274Z,99339.22
2022-12-24T07:23:15.472Z,99322.63
2022-12-24T07:25:47.465Z,99342.53
2022-12-24T07:28:24.046Z,99352.28
2022-12-24T07:31:00.533Z,99359.97
2022-12-24T07:33:32.959Z,99318.47
2022-12-24T07:36:07.774Z,99364.41
2022-12-24T07:38:39.698Z,99337.13
2022-12-24T07:41:12.180Z,99310.59
2022-12-24T07:43:44.179Z,99333.00
2022-12-24T07:46:16.436Z,99380.75
2022-12-24T07:48:48.693Z,99317.66
2022-12-24T07:51:21.031Z,99350.63
2022-12-24T07:53:53.019Z,99354.03
2022-12-24T07:56:25.060Z,99382.84
2022-12-24T07:58:57.084Z,99364.47
2022-12-24T08:01:29.277Z,99361.25
2022-12-24T08:04:01.545Z,99322.81
2022-12-24T08:06:33.617Z,99388.25
2022-12-24T08:09:05.593Z,99377.34
2022-12-24T08:11:37.541Z,99383.22
2022-12-24T08:14:09.533Z,99387.34
2022-12-24T08:16:41.579Z,99362.56
2022-12-24T08:19:14.690Z,99362.75
2022-12-24T08:21:46.685Z,99390.00
2022-12-24T08:24:18.671Z,99363.47
2022-12-24T08:26:51.920Z,99380.75
2022-12-24T08:29:23.940Z,99374.13
2022-12-24T08:31:56.148Z,99392.47
2022-12-24T08:34:28.701Z,99394.16
2022-12-24T08:37:00.656Z,99384.78
2022-12-24T08:39:32.630Z,99398.28
2022-12-24T08:42:04.797Z,99383.97
2022-12-24T08:44:36.758Z,99397.72
2022-12-24T08:47:09.015Z,99418.28
2022-12-24T08:49:41.081Z,99408.28
2022-12-24T08:52:13.060Z,99431.59
2022-12-24T08:54:45.050Z,99428.84
2022-12-24T08:57:16.999Z,99412.69
2022-12-24T08:59:49.035Z,99419.41
2022-12-24T09:02:21.358Z,99419.94
2022-12-24T09:04:53.612Z,99402.16
2022-12-24T09:07:25.725Z,99399.84
2022-12-24T09:09:57.699Z,99401.22
2022-12-24T09:12:29.852Z,99427.91
2022-12-24T09:15:04.083Z,99387.91
2022-12-24T09:17:36.858Z,99442.44
2022-12-24T09:20:09.986Z,99401.09
2022-12-24T09:22:41.936Z,99387.91
2022-12-24T09:25:13.968Z,99430.50
2022-12-24T09:27:46.223Z,99445.56
2022-12-24T09:30:18.319Z,99420.84
2022-12-24T09:32:52.189Z,99435.47
2022-12-24T09:35:24.172Z,99428.38
2022-12-24T09:38:03.284Z,99422.16
2022-12-24T09:40:44.732Z,99436.38
2022-12-24T09:43:22.468Z,99441.72
2022-12-24T09:45:57.330Z,99449.78
2022-12-24T09:48:31.808Z,99458.25
2022-12-24T09:51:06.788Z,99462.28
2022-12-24T09:54:10.968Z,99457.06
2022-12-24T09:56:47.788Z,99458.16
2022-12-24T09:59:26.128Z,99433.44
2022-12-24T10:01:58.551Z,99459.63
2022-12-24T10:04:31.911Z,99463.22
2022-12-24T10:07:06.381Z,99481.50
2022-12-24T10:10:06.256Z,99478.09
2022-12-24T10:12:45.925Z,99478.38
2022-12-24T10:15:33.194Z,99464.22
2022-12-24T10:18:22.528Z,99480.13
2022-12-24T10:21:06.359Z,99478.81
2022-12-24T10:23:44.329Z,99501.25
2022-12-24T10:26:25.368Z,99503.44
2022-12-24T10:29:09.678Z,99513.13
2022-12-24T10:31:57.251Z,99503.09
2022-12-24T10:34:34.159Z,99515.50
2022-12-24T10:37:08.090Z,99513.56
2022-12-24T10:39:40.079Z,99512.56
2022-12-24T10:42:14.724Z,99517.41
2022-12-24T10:44:57.753Z,99471.84
2022-12-24T10:47:32.700Z,99516.22
2022-12-24T10:50:17.272Z,99518.31
2022-12-24T10:52:51.960Z,99522.38
2022-12-24T10:55:24.840Z,99438.53
2022-12-24T10:58:06.370Z,99506.00
2022-12-24T11:00:43.118Z,99513.94
2022-12-24T11:03:24.022Z,99510.25
2022-12-24T11:06:12.584Z,99519.16
2022-12-24T11:08:46.190Z,99502.63
2022-12-24T11:11:20.780Z,99504.81
2022-12-24T11:13:59.824Z,99519.78
2022-12-24T11:16:37.150Z,99528.56
2022-12-24T11:19:19.142Z,99533.97
2022-12-24T11:22:00.274Z,99532.50
2022-12-24T11:24:37.290Z,99526.69
2022-12-24T11:27:39.162Z,99514.53
2022-12-24T11:30:24.445Z,99533.75
2022-12-24T11:33:02.374Z,99548.47
2022-12-24T11:35:39.820Z,99551.78
2022-12-24T11:38:18.046Z,99548.84
2022-12-24T11:41:00.116Z,99559.03
2022-12-24T11:43:45.150Z,99518.13
2022-12-24T11:46:22.875Z,99567.22
2022-12-24T11:49:12.069Z,99560.22
2022-12-24T11:52:01.119Z,99561.69
2022-12-24T11:54:41.687Z,99573.56
2022-12-24T11:57:17.623Z,99582.94
2022-12-24T11:59:50.651Z,99584.22
2022-12-24T12:02:34.816Z,99593.44
2022-12-24T12:05:20.917Z,99592.97
2022-12-24T12:07:58.644Z,99579.31
2022-12-24T12:10:39.515Z,99608.13
2022-12-24T12:13:22.700Z,99615.19
2022-12-24T12:16:20.075Z,99605.66
2022-12-24T12:19:00.616Z,99624.75
2022-12-24T12:21:44.410Z,99623.34
2022-12-24T12:24:35.208Z,99626.69
2022-12-24T12:27:12.747Z,99632.88
2022-12-24T12:29:51.037Z,99644.94
2022-12-24T12:33:05.182Z,99640.41
2022-12-24T12:35:40.623Z,99650.00
2022-12-24T12:38:18.559Z,99600.16
2022-12-24T12:41:31.773Z,99662.19
2022-12-24T12:44:06.446Z,99665.53
2022-12-24T12:46:53.783Z,99676.38
2022-12-24T12:49:40.920Z,99682.44
2022-12-24T12:52:18.941Z,99684.09
2022-12-24T12:55:24.085Z,99682.19
2022-12-24T12:58:01.543Z,99679.81
2022-12-24T13:00:39.976Z,99669.53
2022-12-24T13:03:43.012Z,99690.81
2022-12-24T13:06:24.219Z,99695.47
2022-12-24T13:09:30.548Z,99707.03
2022-12-24T13:12:02.454Z,99713.16
2022-12-24T13:14:52.296Z,99710.88
2022-12-24T13:17:39.578Z,99723.53
2022-12-24T13:20:31.819Z,99702.06
2022-12-24T13:23:14.279Z,99723.31
2022-12-24T13:25:51.913Z,99726.38
2022-12-24T13:28:23.922Z,99738.06
2022-12-24T13:31:02.174Z,99741.13
2022-12-24T13:33:37.607Z,99743.69
2022-12-24T13:36:17.425Z,99752.22
2022-12-24T13:38:54.353Z,99751.31
2022-12-24T13:41:38.143Z,99760.03
2022-12-24T13:44:14.131Z,99765.75
2022-12-24T13:47:05.805Z,99766.91
2022-12-24T13:49:41.466Z,99771.16
2022-12-24T13:52:13.461Z,99777.28
2022-12-24T13:54:54.640Z,99779.53
2022-12-24T13:57:38.603Z,99780.19
2022-12-24T14:00:13.612Z,99782.06
2022-12-24T14:03:13.901Z,99782.78
2022-12-24T14:05:51.279Z,99776.31
2022-12-24T14:08:29.455Z,99728.56
2022-12-24T14:11:21.207Z,99792.16
2022-12-24T14:14:09.756Z,99736.84
2022-12-24T14:16:53.170Z,99805.69
2022-12-24T14:19:35.483Z,99809.09
2022-12-24T14:22:12.295Z,99828.00
2022-12-24T14:24:51.843Z,99840.97
2022-12-24T14:27:48.285Z,99832.75
2022-12-24T14:30:21.795Z,99849.69
2022-12-24T14:32:54.712Z,99844.03
2022-12-24T14:35:30.707Z,99824.88
2022-12-24T14:38:06.528Z,99851.00
2022-12-24T14:40:51.066Z,99852.22
2022-12-24T14:43:37.948Z,99855.72
2022-12-24T14:46:22.601Z,99862.94
2022-12-24T14:49:15.258Z,99864.66
2022-12-24T14:52:18.409Z,99880.03
2022-12-24T14:54:59.587Z,99821.56
2022-12-24T14:57:31.612Z,99867.22
2022-12-24T15:00:20.481Z,99865.47
2022-12-24T15:02:52.858Z,99892.03
2022-12-24T15:05:30.088Z,99896.28
2022-12-24T15:08:04.879Z,99906.22
2022-12-24T15:10:40.410Z,99897.00
2022-12-24T15:13:36.908Z,99907.75
2022-12-24T15:16:12.841Z,99911.13
2022-12-24T15:19:07.072Z,99907.22
2022-12-24T15:21:42.511Z,99910.63
2022-12-24T15:24:32.786Z,99910.38
2022-12-24T15:27:19.842Z,99897.50
2022-12-24T15:29:56.323Z,99925.06
2022-12-24T15:32:28.316Z,99913.81
2022-12-24T15:35:00.815Z,99944.88
2022-12-24T15:37:40.012Z,99927.38
2022-12-24T15:40:21.932Z,99938.16
2022-12-24T15:42:54.145Z,99915.81
2022-12-24T15:45:30.587Z,99938.03
2022-12-24T15:48:10.090Z,99948.53
2022-12-24T15:50:47.195Z,99952.00
2022-12-24T15:53:25.129Z,99957.66
2022-12-24T15:56:10.703Z,99955.69
2022-12-24T15:58:45.001Z,99908.28
2022-12-24T16:01:17.064Z,99962.69
2022-12-24T16:03:52.388Z,99972.44
2022-12-24T16:06:24.634Z,99941.72
2022-12-24T16:08:56.887Z,99965.03
2022-12-24T16:11:37.132Z,99957.84
2022-12-24T16:14:17.552Z,99969.28
2022-12-24T16:16:53.087Z,99963.97
2022-12-24T16:19:29.392Z,99975.25
2022-12-24T16:22:24.397Z,99973.03
2022-12-24T16:24:56.412Z,99946.28
2022-12-24T16:27:28.472Z,99965.72
2022-12-24T16:30:00.517Z,99976.59
2022-12-24T16:32:36.318Z,99989.16
2022-12-24T16:35:25.152Z,99988.38
2022-12-24T16:37:57.152Z,99958.00
2022-12-24T16:40:29.358Z,99988.38
2022-12-24T16:43:19.867Z,99969.88
2022-12-24T16:45:51.999Z,99994.97
2022-12-24T16:48:26.010Z,99991.25
2022-12-24T16:50:58.093Z,100003.34
2022-12-24T16:53:30.249Z,100002.22
2022-12-24T16:56:03.149Z,100004.03
2022-12-24T16:58:35.274Z,100000.94
2022-12-24T17:01:08.582Z,100020.31
2022-12-24T17:03:40.831Z,100001.72
2022-12-24T17:06:12.793Z,100006.31
2022-12-24T17:08:44.983Z,100012.72
2022-12-24T17:11:16.965Z,100030.69
2022-12-24T17:13:48.919Z,100031.66
2022-12-24T17:16:21.300Z,100042.84
2022-12-24T17:18:53.309Z,100047.22
2022-12-24T17:21:25.336Z,100013.03
2022-12-24T17:23:57.712Z,100030.66
2022-12-24T17:26:29.852Z,100043.81
2022-12-24T17:29:04.146Z,100035.59
2022-12-24T17:31:39.502Z,100060.22
2022-12-24T17:34:11.608Z,100053.03
2022-12-24T17:36:44.148Z,99998.19
2022-12-24T17:39:16.079Z,100054.03
2022-12-24T17:41:49.273Z,100056.31
2022-12-24T17:44:21.748Z,100060.06
2022-12-24T17:46:53.772Z,100046.78
2022-12-24T17:49:25.938Z,100016.38
2022-12-24T17:51:59.199Z,100043.91
2022-12-24T17:54:31.738Z,100014.09
2022-12-24T17:57:03.863Z,100017.19
2022-12-24T17:59:37.172Z,100052.84
2022-12-24T18:02:11.944Z,100037.31
2022-12-24T18:04:44.115Z,100072.25
2022-12-24T18:07:16.091Z,100076.13
2022-12-24T18:09:48.103Z,100077.56
2022-12-24T18:12:20.123Z,100050.44
2022-12-24T18:14:52.125Z,100085.66
2022-12-24T18:17:24.069Z,100043.34
2022-12-24T18:19:56.125Z,100066.78
2022-12-24T18:22:28.497Z,100042.31
2022-12-24T18:25:00.982Z,100037.34
2022-12-24T18:27:36.168Z,100053.50
2022-12-24T18:30:10.200Z,100063.81
2022-12-24T18:32:42.248Z,100102.25
2022-12-24T18:35:15.244Z,100067.25
2022-12-24T18:37:47.241Z,100008.56
2022-12-24T18:40:20.847Z,100073.31
2022-12-24T18:42:52.824Z,100027.09
2022-12-24T18:45:24.859Z,100044.47
2022-12-24T18:47:56.910Z,100112.38
2022-12-24T18:50:28.951Z,100057.41
2022-12-24T18:53:01.002Z,100074.31
2022-12-24T18:55:40.399Z,100084.59
2022-12-24T18:58:12.431Z,100057.19
2022-12-24T19:00:44.795Z,100104.31
2022-12-24T19:03:17.056Z,100123.09
2022-12-24T19:05:49.071Z,100131.09
2022-12-24T19:08:55.611Z,100143.31
2022-12-24T19:11:13.055Z,100147.84
2022-12-24T19:13:54.988Z,100143.75
2022-12-24T19:16:28.597Z,100136.25
2022-12-24T19:19:01.227Z,100149.03
2022-12-24T19:21:34.007Z,100180.78
2022-12-24T19:24:10.833Z,100184.16
2022-12-24T19:26:42.993Z,100195.25
2022-12-24T19:29:15.265Z,100188.25
2022-12-24T19:31:47.811Z,100178.13
2022-12-24T19:34:19.818Z,100193.47
2022-12-24T19:36:51.904Z,100194.94
2022-12-24T19:39:30.020Z,100206.47
2022-12-24T19:42:04.147Z,100207.22
2022-12-24T19:44:36.017Z,100173.88
2022-12-24T19:47:07.999Z,100215.97
2022-12-24T19:49:39.981Z,100189.31
2022-12-24T19:52:12.024Z,100154.19
2022-12-24T19:54:44.080Z,100147.47
2022-12-24T19:57:16.060Z,100205.44
2022-12-24T19:59:48.027Z,100160.69
2022-12-24T20:02:20.254Z,100203.41
2022-12-24T20:04:52.626Z,100193.19
2022-12-24T20:07:24.710Z,100148.91
2022-12-24T20:09:56.785Z,100205.44
2022-12-24T20:12:29.005Z,100160.03
2022-12-24T20:15:00.903Z,100126.69
2022-12-24T20:17:32.901Z,100195.94
2022-12-24T20:20:05.532Z,100204.72
2022-12-24T20:22:37.521Z,100203.38
2022-12-24T20:25:09.984Z,100130.56
2022-12-24T20:27:42.019Z,100183.78
2022-12-24T20:30:14.482Z,100216.97
2022-12-24T20:32:46.445Z,100269.91
2022-12-24T20:35:18.422Z,100188.50
2022-12-24T20:37:50.660Z,100234.44
2022-12-24T20:40:22.685Z,100240.66
2022-12-24T20:42:54.777Z,100176.97
2022-12-24T20:45:26.755Z,100199.31
2022-12-24T20:47:58.796Z,100245.66
2022-12-24T20:50:30.928Z,100226.41
2022-12-24T20:53:02.926Z,100216.63
2022-12-24T20:55:35.897Z,100171.47
2022-12-24T20:58:08.131Z,100182.56
2022-12-24T21:00:42.135Z,100212.31
2022-12-24T21:03:18.904Z,100232.47
2022-12-24T21:05:50.916Z,100183.53
2022-12-24T21:08:22.909Z,100259.84
2022-12-24T21:11:14.885Z,100248.16
2022-12-24T21:13:47.005Z,100224.53
2022-12-24T21:16:19.062Z,100222.50
2022-12-24T21:18:51.735Z,100272.75
2022-12-24T21:21:23.719Z,100180.53
2022-12-24T21:23:55.863Z,100255.59
2022-12-24T21:26:27.808Z,100281.22
2022-12-24T21:29:00.399Z,100219.41
2022-12-24T21:31:33.658Z,100287.59
2022-12-24T21:34:05.717Z,100236.13
2022-12-24T21:36:37.627Z,100226.66
2022-12-24T21:39:09.813Z,100270.03
2022-12-24T21:41:42.195Z,100196.19
2022-12-24T21:44:14.522Z,100275.44
2022-12-24T21:46:46.483Z,100216.91
2022-12-24T21:49:37.117Z,100233.03
2022-12-24T21:52:09.040Z,100277.31
2022-12-24T21:54:41.038Z,100292.56
2022-12-24T21:57:31.833Z,100284.28
2022-12-24T22:00:22.858Z,100305.63
2022-12-24T22:02:56.614Z,100307.50
2022-12-24T22:05:28.863Z,100303.25
2022-12-24T22:08:19.551Z,100295.63
2022-12-24T22:11:10.666Z,100301.53
2022-12-24T22:13:42.534Z,100285.81
2022-12-24T22:16:14.554Z,100248.91
2022-12-24T22:18:46.545Z,100265.78
2022-12-24T22:21:18.704Z,100282.81
2022-12-24T22:23:50.632Z,100286.59
2022-12-24T22:26:22.629Z,100294.94
2022-12-24T22:28:54.519Z,100269.84
2022-12-24T22:31:26.797Z,100277.59
2022-12-24T22:34:00.157Z,100300.22
2022-12-24T22:36:32.398Z,100274.31
2022-12-24T22:39:04.812Z,100300.22
2022-12-24T22:41:36.816Z,100275.75
2022-12-24T22:44:08.821Z,100298.75
2022-12-24T22:46:40.892Z,100307.34
2022-12-24T22:49:13.287Z,100315.44
2022-12-24T22:51:45.647Z,100297.38
2022-12-24T22:54:17.812Z,100307.09
2022-12-24T22:56:52.938Z,100315.75
2022-12-24T22:59:25.038Z,100254.69
2022-12-24T23:01:58.020Z,100319.34
2022-12-24T23:04:35.722Z,100265.63
2022-12-24T23:07:10.717Z,100315.53
2022-12-24T23:09:42.702Z,100289.09
2022-12-24T23:12:14.748Z,100301.56
2022-12-24T23:14:58.682Z,100310.72
2022-12-24T23:17:30.894Z,100289.03
2022-12-24T23:20:04.200Z,100313.56
2022-12-24T23:22:36.273Z,100295.56
2022-12-24T23:25:08.643Z,100306.78
2022-12-24T23:27:41.041Z,100322.72
2022-12-24T23:30:13.170Z,100301.34
2022-12-24T23:32:45.321Z,100294.25
2022-12-24T23:35:17.821Z,100297.06
2022-12-24T23:37:49.776Z,100276.22
2022-12-24T23:40:21.797Z,100317.22
2022-12-24T23:42:53.792Z,100310.06
2022-12-24T23:45:25.713Z,100290.03
2022-12-24T23:47:57.684Z,100299.31
2022-12-24T23:50:29.701Z,100327.59
2022-12-24T23:53:01.751Z,100325.88
2022-12-24T23:55:33.735Z,100343.91
2022-12-24T23:58:08.174Z,100340.84
